Time;durP1;ratioP1;P1;durP2;ratioP2;P2;SDS_P1;SDS_P2;PMS_P1;PMS_P2;Temp;Humidity;BMP_temperature;BMP_pressure;BME280_temperature;BME280_humidity;BME280_pressure;Samples;Min_cycle;Max_cycle;Signal;HPM_P1;HPM_P2
2022/03/24 00:01:57;;;;;;;74.43;50.25;;;10.00;99.90;;;;;;6154473;23;20467;-80
2022/03/24 00:04:23;;;;;;;73.05;51.05;;;9.20;99.90;;;;;;6154654;23;20048;-80
2022/03/24 00:06:49;;;;;;;74.05;50.78;;;9.20;99.90;;;;;;6154003;23;20024;-80
2022/03/24 00:09:15;;;;;;;72.93;51.90;;;9.10;99.90;;;;;;6153820;23;20013;-80
2022/03/24 00:11:41;;;;;;;75.78;51.88;;;9.10;99.90;;;;;;6129808;23;20316;-80
2022/03/24 00:14:08;;;;;;;74.32;51.95;;;9.10;99.90;;;;;;6129211;23;20089;-80
2022/03/24 00:16:34;;;;;;;73.82;50.90;;;9.10;99.90;;;;;;6105027;23;20336;-80
2022/03/24 00:18:59;;;;;;;80.30;54.90;;;9.10;99.90;;;;;;6129656;23;20032;-80
2022/03/24 00:21:28;;;;;;;81.03;54.10;;;9.10;99.90;;;;;;6154119;23;20081;-80
2022/03/24 00:23:54;;;;;;;75.50;53.15;;;9.10;99.90;;;;;;6154001;23;20452;-80
2022/03/24 00:26:19;;;;;;;75.57;53.25;;;9.10;99.90;;;;;;6153755;23;20028;-80
2022/03/24 00:28:45;;;;;;;76.72;52.95;;;9.10;99.90;;;;;;6178933;23;20015;-80
2022/03/24 00:31:11;;;;;;;79.90;54.58;;;9.10;99.90;;;;;;6153902;23;20346;-80
2022/03/24 00:33:38;;;;;;;83.20;53.92;;;9.10;99.90;;;;;;6129290;23;20014;-80
2022/03/24 00:36:14;;;;;;;78.55;54.38;;;9.00;99.90;;;;;;6129460;23;20092;-80
2022/03/24 00:38:40;;;;;;;79.30;54.63;;;9.00;99.90;;;;;;6129353;23;20014;-80
2022/03/24 00:41:07;;;;;;;81.15;54.28;;;9.40;99.90;;;;;;6153806;23;20096;-80
2022/03/24 00:43:33;;;;;;;76.13;54.33;;;9.00;99.90;;;;;;6129687;23;20017;-80
2022/03/24 00:45:59;;;;;;;79.85;56.30;;;9.50;99.90;;;;;;6129208;23;20140;-80
2022/03/24 00:48:25;;;;;;;79.90;54.10;;;9.10;99.90;;;;;;6153374;23;20065;-80
2022/03/24 00:50:52;;;;;;;78.78;55.13;;;9.00;99.90;;;;;;6153763;23;20041;-80
2022/03/24 00:53:18;;;;;;;82.88;55.05;;;9.00;99.90;;;;;;6153568;23;20013;-81
2022/03/24 00:55:44;;;;;;;85.80;56.53;;;8.90;99.90;;;;;;6128990;23;20017;-80
2022/03/24 00:58:10;;;;;;;83.05;56.72;;;9.10;99.90;;;;;;6153759;23;20032;-80
2022/03/24 01:00:37;;;;;;;78.57;54.17;;;9.00;99.90;;;;;;6129161;23;20020;-81
2022/03/24 01:03:06;;;;;;;77.68;54.53;;;9.00;99.90;;;;;;6153204;23;20017;-80
2022/03/24 01:05:33;;;;;;;79.05;53.90;;;8.90;99.90;;;;;;6153845;23;20332;-77
2022/03/24 01:07:59;;;;;;;84.45;56.33;;;8.80;99.90;;;;;;6153421;23;20020;-78
2022/03/24 01:10:25;;;;;;;77.72;55.45;;;8.80;99.90;;;;;;6104625;23;20511;-77
2022/03/24 01:12:50;;;;;;;82.13;56.60;;;8.80;99.90;;;;;;6155098;23;20045;-77
2022/03/24 01:15:19;;;;;;;81.10;57.40;;;8.70;99.90;;;;;;6129056;23;20041;-77
2022/03/24 01:17:45;;;;;;;85.72;56.40;;;8.70;99.90;;;;;;6129111;23;20502;-77
2022/03/24 01:20:12;;;;;;;84.03;57.30;;;8.60;99.90;;;;;;6177839;23;20026;-77
2022/03/24 01:22:39;;;;;;;84.15;55.83;;;8.60;99.90;;;;;;6153561;23;20028;-77
2022/03/24 01:25:06;;;;;;;84.40;57.50;;;8.60;99.90;;;;;;6153400;23;20040;-77
2022/03/24 01:27:38;;;;;;;82.13;55.55;;;8.50;99.90;;;;;;6153514;23;20344;-77
2022/03/24 01:30:09;;;;;;;85.22;58.60;;;8.80;99.90;;;;;;6130539;23;20017;-77
2022/03/24 01:32:35;;;;;;;88.13;56.58;;;8.50;99.90;;;;;;6153603;23;20010;-80
2022/03/24 01:35:01;;;;;;;87.40;58.13;;;8.50;99.90;;;;;;6152822;23;20013;-80
2022/03/24 01:37:27;;;;;;;84.28;59.38;;;8.40;99.90;;;;;;6153531;23;20018;-81
2022/03/24 01:39:53;;;;;;;86.90;58.28;;;8.40;99.90;;;;;;6130566;23;20021;-81
2022/03/24 01:42:20;;;;;;;82.35;56.33;;;8.40;99.90;;;;;;6155541;23;20439;-81
2022/03/24 01:44:47;;;;;;;83.60;58.22;;;8.50;99.90;;;;;;6155217;23;20041;-81
2022/03/24 01:47:14;;;;;;;90.15;59.50;;;8.50;99.90;;;;;;6131118;23;20013;-80
2022/03/24 01:49:44;;;;;;;86.32;58.53;;;8.50;99.90;;;;;;6130759;23;20017;-81
2022/03/24 01:52:12;;;;;;;94.13;62.63;;;9.10;99.90;;;;;;6155525;23;20017;-82
2022/03/24 01:54:41;;;;;;;92.78;62.13;;;8.50;99.90;;;;;;6155301;23;20068;-81
2022/03/24 01:57:09;;;;;;;90.40;61.28;;;8.40;99.90;;;;;;6156897;23;20013;-81
2022/03/24 01:59:37;;;;;;;87.03;60.53;;;8.40;99.90;;;;;;6155574;23;20407;-81
2022/03/24 02:02:07;;;;;;;92.28;61.97;;;8.50;99.90;;;;;;6155865;23;20339;-80
2022/03/24 02:04:35;;;;;;;92.93;61.45;;;8.40;99.90;;;;;;6155520;23;20042;-80
2022/03/24 02:07:02;;;;;;;91.30;60.30;;;8.50;99.90;;;;;;6156833;23;20401;-81
2022/03/24 02:09:27;;;;;;;96.90;63.80;;;8.50;99.90;;;;;;6130164;23;20018;-81
2022/03/24 02:11:54;;;;;;;96.78;64.75;;;8.40;99.90;;;;;;6156850;23;20068;-81
2022/03/24 02:14:20;;;;;;;91.43;62.80;;;8.40;99.90;;;;;;6155694;23;20090;-81
2022/03/24 02:16:48;;;;;;;94.38;62.03;;;8.40;99.90;;;;;;6155455;23;20320;-79
2022/03/24 02:19:21;;;;;;;94.85;62.47;;;8.40;99.90;;;;;;6130101;23;20017;-81
2022/03/24 02:21:49;;;;;;;99.28;64.60;;;8.40;99.90;;;;;;6154867;23;20021;-81
2022/03/24 02:24:17;;;;;;;99.35;62.92;;;8.30;99.90;;;;;;6154202;23;20045;-79
2022/03/24 02:26:45;;;;;;;94.97;65.30;;;8.30;99.90;;;;;;6129006;23;20064;-80
2022/03/24 02:29:12;;;;;;;97.78;65.25;;;8.80;99.90;;;;;;6155002;23;20005;-80
2022/03/24 02:31:40;;;;;;;98.90;66.25;;;8.30;99.90;;;;;;6128763;23;20458;-79
2022/03/24 02:36:52;;;;;;;;;;;8.20;99.90;;;;;;6153819;23;20429;-80
2022/03/24 02:39:18;;;;;;;94.97;64.47;;;8.20;99.90;;;;;;6178230;23;19987;-80
2022/03/24 02:41:52;;;;;;;93.55;63.78;;;8.20;99.90;;;;;;6128524;23;20014;-77
2022/03/24 02:44:22;;;;;;;95.60;63.75;;;8.20;99.90;;;;;;6154607;23;20013;-77
2022/03/24 02:46:50;;;;;;;97.55;65.53;;;8.10;99.90;;;;;;6154696;23;20006;-77
2022/03/24 02:49:17;;;;;;;102.85;66.00;;;8.10;99.90;;;;;;6152846;23;20451;-77
2022/03/24 02:51:43;;;;;;;100.05;65.50;;;8.10;99.90;;;;;;6153392;23;20015;-78
2022/03/24 02:54:09;;;;;;;96.65;64.57;;;8.70;99.90;;;;;;6152895;23;20418;-78
2022/03/24 02:56:36;;;;;;;102.97;67.68;;;8.10;99.90;;;;;;6153101;23;20014;-78
2022/03/24 02:59:02;;;;;;;98.20;65.80;;;8.00;99.90;;;;;;6154260;23;20389;-78
2022/03/24 03:01:28;;;;;;;102.63;66.85;;;8.00;99.90;;;;;;6154977;23;20310;-78
2022/03/24 03:03:54;;;;;;;95.68;64.88;;;7.90;99.90;;;;;;6154974;23;20024;-78
2022/03/24 03:06:20;;;;;;;102.20;67.13;;;7.90;99.90;;;;;;6154588;23;20049;-78
2022/03/24 03:08:49;;;;;;;105.50;66.13;;;7.90;99.90;;;;;;6152575;23;20088;-77
2022/03/24 03:11:22;;;;;;;97.07;67.00;;;8.20;99.90;;;;;;6154544;23;20017;-78
2022/03/24 03:13:52;;;;;;;99.53;66.97;;;8.00;99.90;;;;;;6154671;23;20093;-77
2022/03/24 03:16:18;;;;;;;104.18;68.22;;;7.80;99.90;;;;;;6127886;23;20013;-77
2022/03/24 03:20:42;;;;;;;104.60;67.53;;;7.70;99.90;;;;;;5090203;27;20407;-78
2022/03/24 03:23:08;;;;;;;98.15;67.22;;;7.60;99.90;;;;;;5069374;28;20127;-78
2022/03/24 03:25:34;;;;;;;100.43;67.47;;;7.70;99.90;;;;;;5052357;28;20159;-78
2022/03/24 03:27:59;;;;;;;105.68;68.97;;;8.50;99.90;;;;;;5070124;28;20048;-78
2022/03/24 03:30:25;;;;;;;105.10;68.85;;;7.50;99.90;;;;;;5051357;28;20037;-78
2022/03/24 03:32:51;;;;;;;102.43;67.45;;;7.50;99.90;;;;;;5067220;28;20076;-78
2022/03/24 03:35:17;;;;;;;101.53;68.00;;;7.80;99.90;;;;;;5085551;28;20190;-78
2022/03/24 03:37:45;;;;;;;103.10;69.22;;;7.90;99.90;;;;;;5068148;28;20439;-78
2022/03/24 03:40:11;;;;;;;108.63;68.50;;;7.40;99.90;;;;;;5067984;28;20128;-78
2022/03/24 03:42:37;;;;;;;105.63;69.45;;;7.40;99.90;;;;;;5068544;28;20033;-78
2022/03/24 03:45:03;;;;;;;106.05;69.93;;;7.40;99.90;;;;;;5076340;28;20044;-78
2022/03/24 03:47:29;;;;;;;104.45;70.80;;;7.40;99.90;;;;;;5086046;28;20040;-78
2022/03/24 03:49:56;;;;;;;109.22;70.82;;;7.40;99.90;;;;;;5085498;28;20044;-78
2022/03/24 03:52:22;;;;;;;109.57;70.72;;;7.50;99.90;;;;;;5072626;28;20049;-78
2022/03/24 03:54:48;;;;;;;107.20;68.65;;;8.20;99.90;;;;;;5051475;28;20128;-77
2022/03/24 03:57:14;;;;;;;107.15;72.13;;;7.30;99.90;;;;;;5044026;28;20040;-77
2022/03/24 03:59:39;;;;;;;106.93;69.32;;;7.40;99.90;;;;;;5054910;28;20400;-77
2022/03/24 04:02:05;;;;;;;106.63;67.65;;;7.30;99.90;;;;;;5062555;28;20040;-78
2022/03/24 04:04:31;;;;;;;110.70;72.70;;;7.30;99.90;;;;;;5050604;28;20179;-78
2022/03/24 04:06:57;;;;;;;109.28;71.53;;;7.30;99.90;;;;;;5043869;28;20040;-78
2022/03/24 04:09:23;;;;;;;111.45;72.10;;;7.20;99.90;;;;;;5042413;28;20401;-78
2022/03/24 04:11:49;;;;;;;103.28;68.70;;;7.30;99.90;;;;;;5069381;28;20033;-77
2022/03/24 04:14:25;;;;;;;103.78;70.30;;;8.10;99.90;;;;;;5068076;28;20048;-77
2022/03/24 04:16:51;;;;;;;109.13;71.07;;;7.20;99.90;;;;;;5051217;28;20044;-78
2022/03/24 04:19:19;;;;;;;104.05;71.13;;;7.30;99.90;;;;;;5067471;28;20057;-78
2022/03/24 04:21:45;;;;;;;104.18;70.82;;;7.60;99.90;;;;;;5019372;28;20085;-78
2022/03/24 04:24:13;;;;;;;110.40;70.30;;;7.70;99.90;;;;;;5047836;28;20055;-78
2022/03/24 04:26:39;;;;;;;111.13;72.35;;;7.20;99.90;;;;;;5042952;28;20044;-77
2022/03/24 04:29:04;;;;;;;105.97;69.32;;;7.30;99.90;;;;;;5084744;28;20052;-78
2022/03/24 04:31:30;;;;;;;105.05;71.68;;;7.20;99.90;;;;;;5040742;28;20393;-78
2022/03/24 04:33:56;;;;;;;103.70;67.40;;;7.30;99.90;;;;;;5054420;28;20044;-78
2022/03/24 04:36:22;;;;;;;105.13;71.40;;;7.30;99.90;;;;;;5027776;28;20033;-78
2022/03/24 04:38:48;;;;;;;109.05;69.25;;;7.30;99.90;;;;;;5051108;28;20096;-77
2022/03/24 04:41:14;;;;;;;106.65;70.78;;;7.30;99.90;;;;;;5034229;28;20041;-77
2022/03/24 04:43:40;;;;;;;103.10;69.07;;;7.80;99.90;;;;;;5052116;28;20040;-78
2022/03/24 04:46:06;;;;;;;98.35;66.60;;;7.30;99.90;;;;;;5034117;28;20037;-78
2022/03/24 04:48:36;;;;;;;99.88;69.30;;;7.30;99.90;;;;;;5033999;28;20164;-78
2022/03/24 04:51:04;;;;;;;105.88;70.32;;;7.30;99.90;;;;;;5032850;28;20063;-78
2022/03/24 04:53:30;;;;;;;103.85;69.18;;;7.30;99.90;;;;;;5054405;28;20033;-78
2022/03/24 04:55:56;;;;;;;104.78;70.35;;;7.40;99.90;;;;;;5053892;28;20037;-77
2022/03/24 04:58:21;;;;;;;100.63;68.72;;;7.80;99.90;;;;;;5053717;28;20033;-77
2022/03/24 05:00:47;;;;;;;105.28;71.65;;;7.20;99.90;;;;;;5054682;28;20570;-78
2022/03/24 05:03:13;;;;;;;103.97;69.38;;;7.10;99.90;;;;;;5053672;28;20076;-77
2022/03/24 05:05:39;;;;;;;105.90;69.32;;;7.10;99.90;;;;;;5054282;28;20050;-79
2022/03/24 05:08:05;;;;;;;101.38;66.82;;;7.10;99.90;;;;;;5037189;28;20045;-79
2022/03/24 05:10:30;;;;;;;108.95;68.80;;;7.10;99.90;;;;;;5087031;28;20033;-79
2022/03/24 05:12:56;;;;;;;110.95;70.65;;;7.10;99.90;;;;;;5053524;28;20045;-79
2022/03/24 05:15:23;;;;;;;104.03;68.45;;;7.10;99.90;;;;;;5053407;28;20055;-79
2022/03/24 05:17:50;;;;;;;103.07;68.60;;;7.00;99.90;;;;;;5053226;28;20048;-79
2022/03/24 05:20:16;;;;;;;104.40;69.38;;;7.00;99.90;;;;;;5057960;28;20053;-77
2022/03/24 05:22:42;;;;;;;105.32;69.72;;;7.00;99.90;;;;;;5053175;28;20037;-77
2022/03/24 05:25:08;;;;;;;102.93;70.22;;;6.90;99.90;;;;;;5086705;28;20044;-77
2022/03/24 05:27:35;;;;;;;102.20;69.00;;;6.90;99.90;;;;;;5035584;28;20045;-78
2022/03/24 05:30:01;;;;;;;103.20;69.32;;;6.90;99.90;;;;;;5036604;28;20059;-78
2022/03/24 05:32:30;;;;;;;104.10;68.07;;;7.00;99.90;;;;;;5053219;28;20179;-77
2022/03/24 05:35:00;;;;;;;105.35;68.53;;;6.90;99.90;;;;;;5055823;28;20123;-78
2022/03/24 05:37:26;;;;;;;106.22;70.13;;;6.90;99.90;;;;;;5020511;28;20049;-79
2022/03/24 05:39:52;;;;;;;107.72;68.43;;;6.90;99.90;;;;;;5052836;28;20064;-78
2022/03/24 05:42:18;;;;;;;98.95;64.95;;;6.90;99.90;;;;;;5035664;28;20041;-78
2022/03/24 05:44:44;;;;;;;103.32;68.50;;;6.90;99.90;;;;;;5035617;28;20037;-78
2022/03/24 05:47:10;;;;;;;104.22;68.45;;;6.90;99.90;;;;;;5019833;28;20539;-78
2022/03/24 05:49:36;;;;;;;106.85;70.97;;;7.20;99.90;;;;;;5020969;28;20123;-77
2022/03/24 05:52:02;;;;;;;104.38;69.68;;;6.90;99.90;;;;;;5035511;28;20458;-78
2022/03/24 05:54:28;;;;;;;102.55;67.40;;;6.80;99.90;;;;;;5054118;28;20041;-78
2022/03/24 05:56:54;;;;;;;106.68;69.75;;;6.80;99.90;;;;;;5036010;28;20132;-78
2022/03/24 05:59:20;;;;;;;108.40;67.20;;;6.80;99.90;;;;;;5019420;28;20053;-79
2022/03/24 06:01:47;;;;;;;106.10;68.10;;;6.80;99.90;;;;;;5050471;28;20048;-81
2022/03/24 06:04:21;;;;;;;104.22;68.28;;;6.80;99.90;;;;;;5034264;28;20037;-83
2022/03/24 06:06:53;;;;;;;107.35;65.97;;;7.10;99.90;;;;;;5041037;28;20041;-84
2022/03/24 06:09:21;;;;;;;98.50;65.68;;;6.90;99.90;;;;;;5052746;28;20049;-82
2022/03/24 06:11:47;;;;;;;104.65;68.32;;;6.90;99.90;;;;;;5036079;28;20049;-85
2022/03/24 06:14:13;;;;;;;109.30;66.80;;;6.90;99.90;;;;;;5039902;28;20485;-74
2022/03/24 06:16:43;;;;;;;100.93;65.40;;;6.90;99.90;;;;;;5053672;28;20040;-78
2022/03/24 06:19:09;;;;;;;104.55;67.50;;;7.00;99.90;;;;;;5036895;28;20111;-78
2022/03/24 06:21:36;;;;;;;112.97;68.78;;;7.00;99.90;;;;;;5031992;28;20084;-78
2022/03/24 06:24:03;;;;;;;111.68;67.25;;;7.00;99.90;;;;;;5015547;28;20041;-79
2022/03/24 06:26:29;;;;;;;105.82;64.85;;;7.00;99.90;;;;;;5021591;28;20040;-78
2022/03/24 06:28:55;;;;;;;107.95;66.07;;;7.10;99.90;;;;;;5051840;28;20072;-78
2022/03/24 06:31:21;;;;;;;107.88;67.57;;;7.10;99.90;;;;;;5015420;28;20041;-80
2022/03/24 06:33:47;;;;;;;103.47;66.97;;;7.20;99.90;;;;;;5059531;28;20054;-79
2022/03/24 06:36:15;;;;;;;103.55;64.70;;;7.20;99.90;;;;;;5019304;28;20049;-80
2022/03/24 06:38:41;;;;;;;114.70;66.35;;;7.00;99.90;;;;;;5035465;28;20045;-80
2022/03/24 06:41:10;;;;;;;109.35;67.30;;;7.30;99.90;;;;;;5052013;28;20037;-80
2022/03/24 06:43:36;;;;;;;106.72;66.70;;;7.30;99.90;;;;;;5050878;28;20037;-80
2022/03/24 06:46:05;;;;;;;103.63;64.80;;;8.00;99.90;;;;;;5051896;28;20127;-80
2022/03/24 06:48:31;;;;;;;105.43;66.97;;;7.80;99.90;;;;;;5068942;28;20095;-80
2022/03/24 06:51:02;;;;;;;106.32;64.13;;;7.60;99.90;;;;;;5016900;28;20067;-82
2022/03/24 06:53:28;;;;;;;107.15;64.35;;;7.60;99.90;;;;;;5035237;28;20183;-83
2022/03/24 06:55:57;;;;;;;105.68;66.60;;;7.70;99.90;;;;;;5031108;28;20040;-84
2022/03/24 06:58:23;;;;;;;106.97;67.03;;;7.80;99.90;;;;;;5048170;28;21379;-82
2022/03/24 07:00:49;;;;;;;104.55;64.07;;;7.80;99.90;;;;;;5048800;28;20459;-83
2022/03/24 07:03:14;;;;;;;102.30;64.28;;;7.40;99.90;;;;;;5031653;28;20047;-83
2022/03/24 07:05:40;;;;;;;100.68;62.95;;;8.70;99.90;;;;;;5031342;28;20040;-82
2022/03/24 07:08:08;;;;;;;118.32;67.82;;;9.20;99.90;;;;;;5047232;28;20044;-81
2022/03/24 07:10:34;;;;;;;111.80;64.18;;;8.10;99.90;;;;;;5047441;28;20428;-80
2022/03/24 07:13:00;;;;;;;112.13;62.92;;;8.10;99.90;;;;;;5031491;28;20037;-81
2022/03/24 07:15:29;;;;;;;99.75;63.83;;;8.20;99.90;;;;;;5031914;28;20047;-81
2022/03/24 07:17:55;;;;;;;106.72;64.82;;;8.10;99.90;;;;;;5031581;28;20475;-81
2022/03/24 07:20:23;;;;;;;102.47;61.20;;;8.30;99.90;;;;;;5048948;28;20052;-81
2022/03/24 07:22:52;;;;;;;112.97;62.67;;;8.30;99.90;;;;;;5012032;28;20033;-78
2022/03/24 07:25:19;;;;;;;112.38;63.67;;;8.20;99.90;;;;;;5058369;28;20909;-79
2022/03/24 07:27:45;;;;;;;115.32;63.85;;;8.40;99.90;;;;;;5074186;28;20186;-78
2022/03/24 07:30:11;;;;;;;119.05;65.95;;;9.00;99.90;;;;;;5047915;28;20127;-78
2022/03/24 07:32:39;;;;;;;116.65;65.50;;;8.60;99.90;;;;;;5029601;28;20041;-79
2022/03/24 07:35:08;;;;;;;115.13;64.43;;;8.60;99.90;;;;;;5030713;28;20049;-80
2022/03/24 07:37:34;;;;;;;108.43;62.55;;;8.70;99.90;;;;;;5048505;28;20044;-79
2022/03/24 07:40:00;;;;;;;112.70;63.28;;;8.80;99.90;;;;;;5031260;28;20480;-79
2022/03/24 07:42:26;;;;;;;108.88;63.13;;;8.80;99.90;;;;;;5047778;28;20210;-80
2022/03/24 07:44:52;;;;;;;97.82;61.42;;;8.90;99.90;;;;;;5047365;28;20514;-79
2022/03/24 07:47:21;;;;;;;97.30;60.90;;;8.90;99.90;;;;;;5046979;28;20064;-78
2022/03/24 07:49:47;;;;;;;96.35;61.20;;;9.00;99.90;;;;;;5013784;28;20432;-78
2022/03/24 07:52:14;;;;;;;94.07;59.90;;;9.80;99.90;;;;;;5030993;28;20091;-78
2022/03/24 07:55:00;;;;;;;94.15;60.65;;;9.30;99.90;;;;;;5014108;28;20041;-78
2022/03/24 07:57:31;;;;;;;104.43;63.58;;;9.20;99.90;;;;;;5047414;28;20048;-78
2022/03/24 07:59:58;;;;;;;106.32;61.85;;;9.20;99.90;;;;;;5030452;28;20135;-77
2022/03/24 08:02:24;;;;;;;94.57;62.13;;;9.30;99.90;;;;;;5048584;28;20037;-77
2022/03/24 08:04:52;;;;;;;103.10;62.33;;;9.30;99.90;;;;;;5046797;28;20036;-78
2022/03/24 08:07:18;;;;;;;103.97;62.03;;;9.40;99.90;;;;;;5052755;28;20044;-78
2022/03/24 08:09:44;;;;;;;93.78;61.25;;;9.40;99.90;;;;;;5054836;28;20427;-79
2022/03/24 08:12:10;;;;;;;93.53;56.58;;;9.50;99.90;;;;;;5036825;28;20041;-79
2022/03/24 08:14:39;;;;;;;91.03;59.22;;;9.50;99.90;;;;;;5038202;28;20106;-79
2022/03/24 08:17:06;;;;;;;87.03;54.05;;;9.70;99.90;;;;;;5054751;28;20457;-79
2022/03/24 08:19:32;;;;;;;87.00;51.25;;;9.70;99.90;;;;;;5054338;28;20056;-79
2022/03/24 08:21:57;;;;;;;77.70;50.38;;;9.80;99.90;;;;;;5037782;28;20457;-79
2022/03/24 08:24:23;;;;;;;75.28;49.22;;;9.90;99.90;;;;;;5053457;28;20037;-79
2022/03/24 08:26:49;;;;;;;77.72;50.05;;;9.90;99.90;;;;;;5038181;28;20043;-79
2022/03/24 08:29:15;;;;;;;79.20;48.55;;;10.00;99.90;;;;;;5054137;28;20040;-79
2022/03/24 08:31:41;;;;;;;81.88;48.03;;;10.10;99.90;;;;;;5038030;28;20550;-79
2022/03/24 08:34:06;;;;;;;79.45;48.90;;;10.10;99.90;;;;;;5037523;28;20508;-79
2022/03/24 08:36:32;;;;;;;80.65;48.92;;;10.70;99.90;;;;;;5037550;28;20040;-79
2022/03/24 08:38:59;;;;;;;80.07;48.28;;;10.20;99.90;;;;;;5053055;28;20056;-79
2022/03/24 08:41:25;;;;;;;73.65;47.60;;;10.20;99.90;;;;;;5054254;28;20507;-78
2022/03/24 08:43:51;;;;;;;76.28;47.97;;;10.30;99.90;;;;;;5037386;28;20044;-78
2022/03/24 08:46:19;;;;;;;71.78;47.67;;;10.30;99.90;;;;;;5037226;28;20041;-78
2022/03/24 08:48:45;;;;;;;69.57;44.78;;;10.40;99.90;;;;;;5021090;28;20094;-78
2022/03/24 08:51:11;;;;;;;74.13;46.22;;;10.50;99.90;;;;;;5053606;28;20037;-78
2022/03/24 08:53:37;;;;;;;73.95;47.95;;;10.50;99.90;;;;;;5037169;28;20029;-78
2022/03/24 08:56:03;;;;;;;74.82;51.75;;;10.80;99.90;;;;;;5036262;28;20052;-78
2022/03/24 08:58:32;;;;;;;79.47;47.90;;;10.50;99.90;;;;;;5053342;28;20037;-78
2022/03/24 09:00:57;;;;;;;76.35;50.25;;;11.40;99.90;;;;;;5053645;28;20037;-78
2022/03/24 09:03:23;;;;;;;82.05;51.03;;;10.60;99.90;;;;;;5018691;28;20063;-83
2022/03/24 09:05:49;;;;;;;84.78;51.47;;;10.70;99.90;;;;;;5016818;28;20371;-81
2022/03/24 09:08:15;;;;;;;81.90;50.20;;;10.70;99.90;;;;;;5015219;28;20025;-79
2022/03/24 09:10:44;;;;;;;79.43;51.88;;;11.80;99.90;;;;;;5049486;28;20045;-78
2022/03/24 09:13:09;;;;;;;82.97;54.10;;;11.70;99.90;;;;;;5049709;28;20067;-78
2022/03/24 09:15:35;;;;;;;80.25;53.95;;;10.90;99.90;;;;;;5049978;28;20358;-78
2022/03/24 09:18:01;;;;;;;80.85;50.50;;;11.00;99.90;;;;;;5049940;28;20052;-78
2022/03/24 09:20:30;;;;;;;76.82;50.70;;;10.90;99.90;;;;;;5050061;28;20061;-77
2022/03/24 09:22:56;;;;;;;81.22;48.97;;;11.20;99.90;;;;;;5032024;28;20079;-80
2022/03/24 09:25:21;;;;;;;80.15;49.40;;;11.20;99.90;;;;;;5033728;28;20069;-79
2022/03/24 09:27:48;;;;;;;74.40;50.17;;;11.30;99.90;;;;;;5047619;28;20052;-80
2022/03/24 09:30:18;;;;;;;76.38;49.38;;;11.50;99.90;;;;;;5033177;28;20044;-79
2022/03/24 09:32:45;;;;;;;76.13;53.03;;;11.50;99.90;;;;;;5022074;28;20131;-79
2022/03/24 09:35:12;;;;;;;82.90;53.65;;;11.50;99.90;;;;;;5048436;28;20481;-82
2022/03/24 09:37:38;;;;;;;83.63;51.33;;;11.70;99.90;;;;;;5063695;28;20036;-81
2022/03/24 09:40:06;;;;;;;80.35;52.95;;;11.70;99.90;;;;;;5048664;28;20142;-80
2022/03/24 09:42:32;;;;;;;78.68;50.50;;;11.80;99.90;;;;;;5050310;28;20037;-79
2022/03/24 09:45:03;;;;;;;85.35;53.45;;;11.90;99.90;;;;;;5049403;28;20041;-80
2022/03/24 09:47:30;;;;;;;85.43;51.50;;;11.90;99.90;;;;;;5050579;28;20049;-80
2022/03/24 09:49:56;;;;;;;80.38;51.58;;;12.00;99.90;;;;;;5049238;28;20040;-80
2022/03/24 09:52:22;;;;;;;85.00;52.85;;;12.20;99.90;;;;;;5059583;28;20045;-81
2022/03/24 09:54:49;;;;;;;87.03;52.03;;;12.20;99.90;;;;;;5032453;28;20041;-79
2022/03/24 09:57:17;;;;;;;83.95;51.88;;;12.30;99.90;;;;;;5049295;28;20044;-81
2022/03/24 09:59:46;;;;;;;86.88;54.00;;;12.70;99.90;;;;;;5049340;28;20092;-80
2022/03/24 10:02:12;;;;;;;85.80;52.40;;;11.60;99.90;;;;;;5016634;28;20087;-79
2022/03/24 10:04:52;;;;;;;80.70;52.20;;;12.30;99.90;;;;;;5050518;28;20099;-78
2022/03/24 10:07:23;;;;;;;85.32;53.40;;;12.30;99.90;;;;;;5046730;28;20029;-79
2022/03/24 10:09:56;;;;;;;81.35;53.83;;;12.40;99.90;;;;;;5047974;28;20052;-79
2022/03/24 10:12:35;;;;;;;84.35;53.88;;;12.30;99.90;;;;;;5058836;28;20051;-80
2022/03/24 10:15:08;;;;;;;83.10;55.28;;;12.50;99.90;;;;;;5063203;28;20118;-80
2022/03/24 10:17:35;;;;;;;98.00;56.30;;;12.50;99.90;;;;;;5033578;28;20045;-81
2022/03/24 10:20:07;;;;;;;80.50;54.10;;;12.50;99.90;;;;;;5048176;28;20064;-82
2022/03/24 10:22:33;;;;;;;91.90;54.63;;;12.70;99.90;;;;;;5032573;28;20131;-80
2022/03/24 10:25:03;;;;;;;87.15;55.60;;;12.70;99.90;;;;;;5077154;28;20072;-82
2022/03/24 10:27:29;;;;;;;78.43;52.28;;;12.70;99.90;;;;;;5032475;28;20163;-81
2022/03/24 10:29:57;;;;;;;83.22;54.17;;;12.80;99.90;;;;;;5029947;28;20048;-79
2022/03/24 10:32:31;;;;;;;82.05;52.67;;;12.80;99.90;;;;;;5032111;28;20056;-81
2022/03/24 10:35:15;;;;;;;83.18;52.83;;;12.90;99.90;;;;;;5062750;28;20048;-80
2022/03/24 10:37:51;;;;;;;81.65;50.67;;;13.00;99.90;;;;;;5014945;28;20040;-85
2022/03/24 10:40:17;;;;;;;;;;;13.10;99.90;;;;;;5049170;28;20403;-82
2022/03/24 10:42:43;;;;;;;79.75;51.10;;;13.10;99.90;;;;;;5061279;28;20013;-77
2022/03/24 10:45:21;;;;;;;77.45;49.80;;;13.20;99.90;;;;;;5061105;28;20079;-77
2022/03/24 10:47:50;;;;;;;75.07;49.30;;;13.30;99.90;;;;;;5049696;28;20037;-76
2022/03/24 10:50:18;;;;;;;70.47;45.72;;;13.30;99.90;;;;;;5034407;28;20390;-76
2022/03/24 10:52:44;;;;;;;72.47;44.30;;;13.40;99.90;;;;;;5033696;28;20053;-76
2022/03/24 10:55:12;;;;;;;68.47;45.83;;;13.50;99.90;;;;;;5034986;28;20093;-75
2022/03/24 10:57:39;;;;;;;70.40;45.78;;;13.50;99.90;;;;;;5051499;28;20124;-77
2022/03/24 11:00:05;;;;;;;72.05;47.65;;;13.50;99.90;;;;;;5034389;28;20502;-75
2022/03/24 11:02:32;;;;;;;70.25;45.95;;;13.50;99.90;;;;;;5051337;28;20158;-76
2022/03/24 11:05:04;;;;;;;67.70;40.40;;;14.20;99.90;;;;;;5034431;28;20040;-75
2022/03/24 11:07:30;;;;;;;69.00;39.35;;;13.60;99.90;;;;;;5050424;28;20359;-75
2022/03/24 11:09:56;;;;;;;66.43;39.60;;;13.70;99.90;;;;;;5068048;28;20045;-75
2022/03/24 11:12:32;;;;;;;66.03;40.58;;;13.80;99.90;;;;;;5067494;28;20041;-75
2022/03/24 11:15:01;;;;;;;65.00;43.00;;;13.70;99.90;;;;;;5051092;28;20134;-75
2022/03/24 11:17:36;;;;;;;67.03;40.88;;;13.70;99.90;;;;;;5051079;28;20485;-75
2022/03/24 11:20:04;;;;;;;66.38;43.03;;;13.70;99.90;;;;;;5050974;28;20093;-76
2022/03/24 11:23:09;;;;;;;63.70;41.67;;;13.80;99.90;;;;;;5034407;28;20052;-76
2022/03/24 11:25:35;;;;;;;73.20;43.90;;;13.90;99.90;;;;;;5039467;28;20107;-75
2022/03/24 11:28:07;;;;;;;71.82;42.30;;;13.80;99.90;;;;;;5067342;28;20401;-76
2022/03/24 11:30:34;;;;;;;67.50;41.40;;;13.80;99.90;;;;;;5035029;28;20052;-75
2022/03/24 11:33:03;;;;;;;66.07;38.95;;;13.80;99.90;;;;;;5051083;28;20052;-76
2022/03/24 11:35:32;;;;;;;65.18;39.33;;;13.90;99.90;;;;;;5051221;28;20401;-76
2022/03/24 11:37:59;;;;;;;68.38;39.28;;;14.00;99.90;;;;;;5050962;28;20116;-76
2022/03/24 11:40:28;;;;;;;60.97;38.42;;;14.10;99.90;;;;;;5034704;28;20424;-76
2022/03/24 11:42:55;;;;;;;65.22;39.92;;;14.10;99.90;;;;;;5054882;28;20037;-76
2022/03/24 11:45:31;;;;;;;65.95;42.28;;;14.10;99.90;;;;;;5038493;28;20069;-79
2022/03/24 11:48:12;;;;;;;63.92;40.88;;;14.10;99.90;;;;;;5055366;28;20041;-80
2022/03/24 11:50:41;;;;;;;68.35;42.28;;;14.10;99.90;;;;;;5072058;28;20497;-80
2022/03/24 11:53:17;;;;;;;66.13;40.63;;;14.10;99.90;;;;;;5054683;28;20374;-80
2022/03/24 11:55:58;;;;;;;65.97;40.10;;;14.10;99.90;;;;;;5055424;28;20044;-80
2022/03/24 11:58:29;;;;;;;61.22;37.88;;;14.20;99.90;;;;;;5037385;28;20052;-80
2022/03/24 12:00:55;;;;;;;63.60;41.00;;;14.10;99.90;;;;;;5038501;28;20080;-80
2022/03/24 12:03:44;;;;;;;61.58;41.30;;;14.20;99.90;;;;;;5054657;28;20040;-80
2022/03/24 12:06:15;;;;;;;60.20;41.92;;;14.10;99.90;;;;;;5054643;28;20508;-80
2022/03/24 12:08:47;;;;;;;60.20;40.85;;;14.10;99.90;;;;;;5038764;28;20187;-80
2022/03/24 12:11:37;;;;;;;63.42;42.80;;;14.20;99.90;;;;;;5037986;28;20504;-80
2022/03/24 12:14:04;;;;;;;64.10;41.08;;;14.20;99.90;;;;;;5054552;28;20094;-76
2022/03/24 12:16:31;;;;;;;64.38;42.92;;;14.20;99.90;;;;;;5036791;28;20036;-76
2022/03/24 12:18:57;;;;;;;64.40;41.42;;;14.20;99.90;;;;;;5054034;28;20044;-76
2022/03/24 12:21:32;;;;;;;59.88;39.53;;;14.20;99.90;;;;;;5054367;28;20080;-75
2022/03/24 12:24:17;;;;;;;61.83;39.67;;;14.30;99.90;;;;;;5037864;28;20041;-75
2022/03/24 12:26:52;;;;;;;58.63;38.38;;;14.30;99.90;;;;;;5054234;28;20432;-76
2022/03/24 12:29:25;;;;;;;65.43;39.87;;;14.30;99.90;;;;;;5055363;28;20540;-75
2022/03/24 12:31:58;;;;;;;60.67;39.70;;;14.30;99.90;;;;;;5053991;28;20037;-75
2022/03/24 12:34:30;;;;;;;58.72;39.03;;;14.40;99.90;;;;;;5054147;28;20085;-75
2022/03/24 12:36:56;;;;;;;59.50;38.63;;;14.30;99.90;;;;;;5039935;28;20041;-75
2022/03/24 12:39:40;;;;;;;56.85;37.53;;;14.30;99.90;;;;;;5060689;28;20037;-76